Terminal Aerodrome Forecast
Issued by NWS Houston/Galveston, TX

Home | Current Version | Previous Version | Text Only | Print | Product List | Glossary On
Versions: 1 2 3 4 5 6 7 8 9 10 11 12 13 14 15 16 17 18 19 20 21
000
FTUS44 KHGX 242340
TAFGLS
TAF
KGLS 242340Z 2500/2524 15012KT P6SM FEW035
     FM251000 16006KT P6SM SCT025 SCT200
     FM251600 10007KT P6SM VCSH SCT035
     FM252100 10008KT P6SM SCT250=

USA.gov is the U.S. government's official web portal to all federal, state and local government web resources and services.